Portada
METAR-TAF:

METAR-TAF

Aeroports :

Yanbu, Aràbia Saudita

latitud: 24-09N, longitud: 038-04E, altitud: 8 m

Observació

L'informe es va fer fa 1 hora i 12 minuts, a les 12:00 UTC
Vent 18 kt del Oest
Temperatura 39°C
Humitat 36%
Pressió 1001 hPa
Visibilitat 10 km o més
sense núvols per sota de 1500 mi sense presència de cumulonimbus.

METAR: OEYN 161200Z 27018KT CAVOK 39/21 Q1001 NOSIG

Hora: 16:12 (13:12 UTC)

Pronòstic

L'informe es va fer fa 2 hores i 12 minuts, a les 11:00 UTC
Pronòstic vàlid del 16 a les 12 UTC al 17 a les 18 UTC
Vent 10 kt del Oest amb ràfegues de 20 kt
Visibilitat: 8000 m
Evolucionant progressivament
l' 16 a les 20 UTC al 16 a les 22 UTC
Vent 6 kt del Est

TAF: OEYN 161100Z 1612/1718 27010G20KT 8000 NSC BECMG 1620/1622 09006KT

Observacions i pronòstics meteorològics de més de 4000 aeroports (METAR i TAF).

Les estacions disponibles són els punts grocs i vermells al mapa.

Posi el ratolí al punt desitjat per veure el nom de l'estació.

Feu clic per veure les observacions i els pronòstics meteorològics.

Per canviar el mapa: feu clic els botons verds amb una creu de color negre per apropar; al botó verd amb un guió per allunyar la imatge; o en les fletxes verdes per a mapes adjacents.


METAR-TAF: